Time;durP1;ratioP1;P1;durP2;ratioP2;P2;SDS_P1;SDS_P2;PMS_P1;PMS_P2;Temp;Humidity;BMP_temperature;BMP_pressure;BME280_temperature;BME280_humidity;BME280_pressure;Samples;Min_cycle;Max_cycle;Signal;HPM_P1;HPM_P2
2021/03/03 00:01:20;;;;;;;19.85;10.93;;;5.10;68.50;;;;;;4890835;29;27445;-60
2021/03/03 00:04:05;;;;;;;21.23;11.43;;;5.10;68.60;;;;;;4890273;29;27460;-59
2021/03/03 00:06:49;;;;;;;24.08;12.48;;;5.00;68.60;;;;;;4890659;29;27991;-60
2021/03/03 00:09:33;;;;;;;22.83;11.80;;;5.00;68.80;;;;;;4890933;29;27411;-60
2021/03/03 00:12:18;;;;;;;26.10;12.98;;;5.00;68.80;;;;;;4890949;29;27443;-60
2021/03/03 00:15:03;;;;;;;31.27;14.25;;;5.00;68.80;;;;;;4890918;29;27332;-60
2021/03/03 00:17:48;;;;;;;26.52;12.75;;;5.00;68.70;;;;;;4890337;29;27427;-60
2021/03/03 00:20:32;;;;;;;23.73;11.95;;;5.00;68.60;;;;;;4890503;29;27351;-60
2021/03/03 00:23:16;;;;;;;27.27;13.18;;;5.00;68.80;;;;;;4890555;29;27396;-60
2021/03/03 00:26:01;;;;;;;32.03;14.77;;;4.90;68.70;;;;;;4890204;29;27319;-60
2021/03/03 00:28:46;;;;;;;33.67;16.20;;;4.90;68.80;;;;;;4890599;29;27362;-60
2021/03/03 00:31:31;;;;;;;35.10;16.45;;;4.90;68.90;;;;;;4890256;29;27323;-59
2021/03/03 00:34:15;;;;;;;34.85;16.27;;;4.90;69.00;;;;;;4890615;29;27390;-60
2021/03/03 00:37:00;;;;;;;37.17;16.80;;;4.90;69.00;;;;;;4890482;29;27401;-60
2021/03/03 00:39:44;;;;;;;34.53;17.20;;;4.90;69.20;;;;;;4890168;29;27391;-51
2021/03/03 00:42:29;;;;;;;37.70;17.23;;;4.80;69.10;;;;;;4890413;29;27522;-59
2021/03/03 00:45:13;;;;;;;36.30;17.20;;;4.80;69.20;;;;;;4890449;29;27393;-60
2021/03/03 00:47:58;;;;;;;37.70;17.33;;;4.80;69.20;;;;;;4890179;29;27387;-60
2021/03/03 00:50:44;;;;;;;34.97;16.27;;;4.80;69.30;;;;;;4899896;29;27839;-60
2021/03/03 00:53:30;;;;;;;31.98;15.80;;;4.80;69.40;;;;;;4899625;29;27441;-60
2021/03/03 00:56:15;;;;;;;28.50;16.17;;;4.70;69.30;;;;;;4889993;29;27427;-60
2021/03/03 00:59:00;;;;;;;33.33;15.73;;;4.70;69.40;;;;;;4900893;29;27336;-60
2021/03/03 01:01:44;;;;;;;26.80;15.55;;;4.70;69.50;;;;;;4886517;29;27380;-50
2021/03/03 01:04:33;;;;;;;32.67;15.48;;;4.70;69.60;;;;;;4886855;29;27339;-53
2021/03/03 01:07:25;;;;;;;28.52;15.77;;;4.70;69.60;;;;;;4888676;29;27606;-59
2021/03/03 01:10:10;;;;;;;29.50;14.82;;;4.70;69.70;;;;;;4887076;29;27400;-59
2021/03/03 01:12:56;;;;;;;31.05;14.73;;;4.70;69.70;;;;;;4886972;29;27872;-60
2021/03/03 01:15:42;;;;;;;32.65;16.50;;;4.60;69.70;;;;;;4899266;29;27484;-59
2021/03/03 01:18:35;;;;;;;31.45;16.27;;;4.60;69.80;;;;;;4899161;29;27311;-58
2021/03/03 01:21:20;;;;;;;33.10;16.30;;;4.60;69.80;;;;;;4889137;29;27384;-58
2021/03/03 01:24:05;;;;;;;32.25;16.27;;;4.60;69.90;;;;;;4899373;29;27835;-60
2021/03/03 01:26:49;;;;;;;35.15;15.85;;;4.60;69.90;;;;;;4889753;29;27388;-60
2021/03/03 01:29:33;;;;;;;32.35;17.33;;;4.60;69.90;;;;;;4889552;29;27335;-60
2021/03/03 01:32:18;;;;;;;29.10;15.15;;;4.60;69.90;;;;;;4889453;29;27354;-61
2021/03/03 01:35:03;;;;;;;29.77;15.32;;;4.50;70.00;;;;;;4889650;29;27410;-60
2021/03/03 01:37:48;;;;;;;33.92;17.63;;;4.50;70.00;;;;;;4887417;29;27529;-60
2021/03/03 01:40:32;;;;;;;33.33;14.65;;;4.50;70.20;;;;;;4886606;29;27438;-60
2021/03/03 01:43:16;;;;;;;29.88;15.93;;;4.50;70.10;;;;;;4889592;29;27423;-60
2021/03/03 01:46:01;;;;;;;36.00;17.50;;;4.50;70.10;;;;;;4889469;29;27410;-60
2021/03/03 01:48:45;;;;;;;32.78;16.55;;;4.50;70.30;;;;;;4889474;29;27486;-59
2021/03/03 01:51:30;;;;;;;34.78;17.05;;;4.50;70.40;;;;;;4889028;29;27327;-59
2021/03/03 01:54:14;;;;;;;32.72;15.93;;;4.40;70.30;;;;;;4898973;29;27410;-60
2021/03/03 01:57:00;;;;;;;31.40;15.88;;;4.40;70.30;;;;;;4901764;29;27426;-59
2021/03/03 01:59:44;;;;;;;36.95;17.13;;;4.40;70.30;;;;;;4901803;29;27479;-59
2021/03/03 02:02:29;;;;;;;34.92;17.27;;;4.40;70.30;;;;;;4888735;29;27426;-50
2021/03/03 02:05:14;;;;;;;32.30;16.23;;;4.40;70.50;;;;;;4889284;29;27470;-59
2021/03/03 02:08:11;;;;;;;30.13;14.95;;;4.40;70.40;;;;;;4885911;29;27493;-60
2021/03/03 02:10:55;;;;;;;33.75;16.70;;;4.40;70.60;;;;;;4900938;29;27504;-60
2021/03/03 02:13:51;;;;;;;31.10;15.13;;;4.40;70.60;;;;;;4889221;29;27423;-60
2021/03/03 02:16:35;;;;;;;32.15;15.88;;;4.40;70.60;;;;;;4888612;29;27406;-60
2021/03/03 02:19:23;;;;;;;38.72;16.67;;;4.40;70.60;;;;;;4901659;29;27466;-60
2021/03/03 02:22:33;;;;;;;40.00;18.95;;;4.40;70.70;;;;;;4888758;29;27413;-60
2021/03/03 02:25:27;;;;;;;33.58;17.10;;;4.30;70.60;;;;;;4889205;29;27424;-59
2021/03/03 02:28:12;;;;;;;34.58;16.35;;;4.30;70.70;;;;;;4889023;29;27323;-58
2021/03/03 02:30:56;;;;;;;39.65;15.95;;;4.30;70.70;;;;;;4901291;29;27941;-58
2021/03/03 02:33:44;;;;;;;32.90;16.23;;;4.30;70.80;;;;;;4901427;29;27391;-59
2021/03/03 02:36:29;;;;;;;32.38;15.50;;;4.30;70.80;;;;;;4898388;29;27491;-60
2021/03/03 02:39:15;;;;;;;38.03;17.02;;;4.30;70.80;;;;;;4888585;29;27487;-60
2021/03/03 02:41:59;;;;;;;33.00;15.15;;;4.30;70.80;;;;;;4888553;29;27413;-59
2021/03/03 02:44:44;;;;;;;38.30;16.48;;;4.30;70.80;;;;;;4900545;29;27557;-55
2021/03/03 02:47:28;;;;;;;40.45;17.10;;;4.30;71.00;;;;;;4901099;29;27454;-59
2021/03/03 02:50:13;;;;;;;30.17;16.67;;;4.30;70.90;;;;;;4903451;29;27417;-60
2021/03/03 02:52:58;;;;;;;34.28;15.45;;;4.20;70.80;;;;;;4892068;29;27405;-60
2021/03/03 02:55:42;;;;;;;41.00;15.27;;;4.20;70.90;;;;;;4892025;29;27430;-60
2021/03/03 02:58:26;;;;;;;27.45;16.23;;;4.20;71.00;;;;;;4891756;29;27328;-59
2021/03/03 03:01:13;;;;;;;28.60;13.60;;;4.20;70.90;;;;;;4891967;29;27362;-59
2021/03/03 03:04:01;;;;;;;29.38;14.32;;;4.20;71.00;;;;;;4891157;29;27404;-60
2021/03/03 03:06:47;;;;;;;27.77;14.85;;;4.20;71.10;;;;;;4891213;29;27954;-59
2021/03/03 03:09:31;;;;;;;27.77;14.18;;;4.20;71.10;;;;;;4904146;29;27423;-60
2021/03/03 03:12:17;;;;;;;29.75;13.60;;;4.20;71.10;;;;;;4903846;29;27489;-59
2021/03/03 03:15:02;;;;;;;27.58;13.32;;;4.20;71.20;;;;;;4903981;29;27475;-60
2021/03/03 03:17:50;;;;;;;24.40;12.68;;;4.20;71.20;;;;;;4903981;29;27536;-52
2021/03/03 03:20:34;;;;;;;23.55;12.65;;;4.20;71.20;;;;;;4891429;29;27312;-50
2021/03/03 03:23:19;;;;;;;29.38;13.95;;;4.10;71.20;;;;;;4891650;29;27415;-60
2021/03/03 03:26:04;;;;;;;27.90;12.80;;;4.10;71.40;;;;;;4903707;29;27912;-60
2021/03/03 03:28:48;;;;;;;23.30;13.18;;;4.10;71.40;;;;;;4901065;29;27336;-60
2021/03/03 03:31:33;;;;;;;26.63;12.35;;;4.10;71.50;;;;;;4904108;29;27433;-58
2021/03/03 03:34:18;;;;;;;24.45;12.07;;;4.10;71.60;;;;;;4904037;29;27527;-60
2021/03/03 03:37:04;;;;;;;22.05;12.45;;;4.10;71.50;;;;;;4891231;29;27410;-60
2021/03/03 03:39:48;;;;;;;21.70;12.38;;;4.10;71.60;;;;;;4903294;29;27368;-60
2021/03/03 03:42:32;;;;;;;26.65;11.68;;;4.00;71.50;;;;;;4891414;29;27500;-60
2021/03/03 03:45:17;;;;;;;22.75;12.18;;;4.00;71.60;;;;;;4903846;29;27439;-59
2021/03/03 03:48:02;;;;;;;22.80;11.15;;;4.00;71.50;;;;;;4890941;29;27416;-59
2021/03/03 03:50:47;;;;;;;23.25;12.02;;;4.00;71.60;;;;;;4890903;29;27432;-59
2021/03/03 03:53:31;;;;;;;21.58;11.38;;;4.00;71.60;;;;;;4903527;29;27508;-60
2021/03/03 03:56:16;;;;;;;27.50;10.70;;;4.00;71.80;;;;;;4891128;29;27413;-60
2021/03/03 03:59:01;;;;;;;19.90;10.70;;;4.00;71.80;;;;;;4903469;29;27488;-60
2021/03/03 04:01:45;;;;;;;26.15;11.00;;;4.00;71.80;;;;;;4889716;29;27434;-51
2021/03/03 04:04:30;;;;;;;21.45;11.10;;;4.00;71.90;;;;;;4888067;29;27503;-60
2021/03/03 04:07:14;;;;;;;19.27;10.20;;;3.90;71.90;;;;;;4890382;29;27460;-60
2021/03/03 04:09:59;;;;;;;22.15;10.65;;;3.90;71.90;;;;;;4890644;29;27495;-60
2021/03/03 04:12:43;;;;;;;17.90;10.15;;;3.90;72.00;;;;;;4890604;29;27423;-60
2021/03/03 04:15:28;;;;;;;24.40;12.25;;;3.90;71.90;;;;;;4890937;29;27454;-60
2021/03/03 04:18:13;;;;;;;17.45;10.85;;;3.90;72.10;;;;;;4890600;29;27313;-58
2021/03/03 04:20:58;;;;;;;19.90;9.77;;;3.90;72.10;;;;;;4890802;29;27414;-60
2021/03/03 04:23:42;;;;;;;17.98;10.27;;;3.90;72.20;;;;;;4890744;29;27332;-60
2021/03/03 04:26:26;;;;;;;20.90;10.02;;;3.80;72.10;;;;;;4890491;29;27351;-59
2021/03/03 04:29:11;;;;;;;17.45;9.90;;;3.80;72.10;;;;;;4887419;29;27404;-59
2021/03/03 04:31:55;;;;;;;20.58;10.85;;;3.80;72.20;;;;;;4890629;29;27337;-55
2021/03/03 04:34:40;;;;;;;20.17;9.77;;;3.80;72.20;;;;;;4890058;29;27665;-60
2021/03/03 04:37:24;;;;;;;18.40;10.52;;;3.80;72.20;;;;;;4890446;29;27340;-60
2021/03/03 04:40:09;;;;;;;17.73;9.95;;;3.80;72.20;;;;;;4890532;29;27367;-60
2021/03/03 04:42:54;;;;;;;23.98;10.95;;;3.80;72.20;;;;;;4890227;29;27412;-60
2021/03/03 04:45:38;;;;;;;22.88;10.13;;;3.80;72.30;;;;;;4890183;29;27556;-60
2021/03/03 04:48:23;;;;;;;17.85;10.65;;;3.70;72.20;;;;;;4890319;29;27141;-60
2021/03/03 04:51:07;;;;;;;18.20;10.55;;;3.80;72.30;;;;;;4890083;29;27418;-60
2021/03/03 04:53:52;;;;;;;16.45;9.68;;;3.80;72.30;;;;;;4889985;29;27896;-60
2021/03/03 04:56:36;;;;;;;17.40;9.20;;;3.70;72.30;;;;;;4889843;29;27429;-59
2021/03/03 04:59:21;;;;;;;19.45;9.52;;;3.70;72.30;;;;;;4890281;29;27475;-59
2021/03/03 05:02:06;;;;;;;20.40;10.05;;;3.70;72.50;;;;;;4889462;29;27425;-60
2021/03/03 05:04:51;;;;;;;19.63;10.23;;;3.70;72.50;;;;;;4902323;29;27869;-60
2021/03/03 05:07:35;;;;;;;19.92;9.98;;;3.70;72.50;;;;;;4889848;29;27479;-60
2021/03/03 05:10:20;;;;;;;17.58;9.68;;;3.70;72.60;;;;;;4890128;29;27431;-60
2021/03/03 05:13:04;;;;;;;19.58;10.55;;;3.70;72.60;;;;;;4889669;29;27432;-60
2021/03/03 05:15:48;;;;;;;18.33;9.65;;;3.70;72.60;;;;;;4889695;29;27976;-60
2021/03/03 05:18:33;;;;;;;20.50;10.57;;;3.70;72.60;;;;;;4889598;29;27540;-60
2021/03/03 05:21:17;;;;;;;17.75;10.05;;;3.70;72.70;;;;;;4889923;29;27331;-60
2021/03/03 05:24:02;;;;;;;16.85;9.10;;;3.70;72.60;;;;;;4889615;29;27352;-59
2021/03/03 05:26:47;;;;;;;18.25;10.15;;;3.70;72.60;;;;;;4889524;29;27434;-60
2021/03/03 05:29:31;;;;;;;17.95;9.90;;;3.60;72.60;;;;;;4889715;29;27406;-60
2021/03/03 05:32:16;;;;;;;20.75;10.68;;;3.70;72.70;;;;;;4889349;29;27431;-59
2021/03/03 05:35:01;;;;;;;17.98;10.73;;;3.60;72.80;;;;;;4889676;29;27348;-59
2021/03/03 05:37:45;;;;;;;17.85;9.57;;;3.60;72.80;;;;;;4889228;29;27351;-59
2021/03/03 05:40:30;;;;;;;15.55;9.60;;;3.60;72.80;;;;;;4889594;29;27393;-52
2021/03/03 05:43:14;;;;;;;22.92;10.75;;;3.60;72.80;;;;;;4901970;29;27377;-59
2021/03/03 05:46:00;;;;;;;18.75;10.63;;;3.60;72.80;;;;;;4889583;29;27410;-60
2021/03/03 05:48:55;;;;;;;17.33;10.60;;;3.60;72.80;;;;;;4889276;29;27402;-60
2021/03/03 05:51:40;;;;;;;18.33;10.30;;;3.60;73.70;;;;;;4889485;29;27413;-60
2021/03/03 05:54:24;;;;;;;19.55;10.20;;;3.60;72.90;;;;;;4902045;29;27471;-60
2021/03/03 05:57:09;;;;;;;24.73;10.77;;;3.60;73.80;;;;;;4901615;29;27394;-59
2021/03/03 05:59:54;;;;;;;21.70;9.57;;;3.60;72.90;;;;;;4888855;29;27399;-60
2021/03/03 06:02:39;;;;;;;22.90;10.50;;;3.60;73.00;;;;;;4901268;29;27470;-60
2021/03/03 06:05:23;;;;;;;21.98;9.57;;;3.60;73.00;;;;;;4901938;29;27386;-60
2021/03/03 06:08:08;;;;;;;22.27;11.43;;;3.60;73.00;;;;;;4901550;29;27423;-59
2021/03/03 06:10:53;;;;;;;19.98;10.57;;;3.60;73.00;;;;;;4888874;29;27600;-60
2021/03/03 06:13:37;;;;;;;17.73;10.05;;;3.60;73.00;;;;;;4889140;29;27467;-60
2021/03/03 06:16:22;;;;;;;19.90;10.85;;;3.60;73.00;;;;;;4889250;29;27471;-59
2021/03/03 06:19:07;;;;;;;20.42;10.50;;;3.60;73.00;;;;;;4898371;29;27473;-60
2021/03/03 06:21:51;;;;;;;25.25;11.40;;;3.60;73.80;;;;;;4901566;29;27976;-51
2021/03/03 06:24:36;;;;;;;18.05;10.20;;;3.70;73.00;;;;;;4888119;29;27458;-58
2021/03/03 06:27:23;;;;;;;20.02;11.25;;;3.70;73.00;;;;;;4888664;29;27469;-60
2021/03/03 06:30:10;;;;;;;20.30;10.20;;;3.70;72.90;;;;;;4898535;29;27456;-60
2021/03/03 06:32:58;;;;;;;20.50;10.52;;;3.80;73.00;;;;;;4888631;29;28000;-60
2021/03/03 06:35:44;;;;;;;22.85;10.18;;;3.80;72.90;;;;;;4888649;29;27412;-60
2021/03/03 06:38:29;;;;;;;22.92;10.93;;;3.80;72.70;;;;;;4888526;29;27404;-60
2021/03/03 06:41:13;;;;;;;21.23;10.38;;;3.90;72.80;;;;;;4888544;29;27410;-60
2021/03/03 06:43:58;;;;;;;26.35;10.00;;;3.90;72.60;;;;;;4888773;29;27334;-58
2021/03/03 06:46:42;;;;;;;21.52;10.25;;;3.90;72.50;;;;;;4888728;29;27359;-59
2021/03/03 06:49:27;;;;;;;21.33;10.10;;;4.00;72.50;;;;;;4888568;29;27463;-51
2021/03/03 06:52:12;;;;;;;20.92;10.35;;;4.00;72.30;;;;;;4888652;29;27593;-60
2021/03/03 06:55:02;;;;;;;20.98;10.60;;;4.10;72.20;;;;;;4901242;29;27400;-59
2021/03/03 06:57:47;;;;;;;19.73;10.63;;;4.20;72.10;;;;;;4888138;29;27423;-59
2021/03/03 07:00:43;;;;;;;22.08;10.95;;;4.20;71.90;;;;;;4888390;29;27441;-52
2021/03/03 07:03:34;;;;;;;19.35;10.90;;;4.20;71.80;;;;;;4887488;29;27426;-60
2021/03/03 07:06:20;;;;;;;22.67;10.63;;;4.30;71.60;;;;;;4887788;29;27415;-60
2021/03/03 07:09:05;;;;;;;19.88;11.68;;;4.30;71.40;;;;;;4900745;29;27426;-60
2021/03/03 07:11:50;;;;;;;22.33;11.35;;;4.40;71.40;;;;;;4888530;29;26859;-60
2021/03/03 07:14:34;;;;;;;21.00;12.10;;;4.50;71.20;;;;;;4888204;29;27480;-60
2021/03/03 07:17:19;;;;;;;25.10;11.48;;;4.60;71.10;;;;;;4897674;29;27433;-60
2021/03/03 07:20:08;;;;;;;19.55;11.55;;;4.70;70.90;;;;;;4887696;29;27426;-60
2021/03/03 07:22:54;;;;;;;25.02;12.35;;;4.70;70.60;;;;;;4888124;29;27480;-60
2021/03/03 07:25:39;;;;;;;24.30;11.77;;;4.90;70.40;;;;;;4888204;29;27323;-59
2021/03/03 07:28:27;;;;;;;21.52;11.20;;;5.00;70.40;;;;;;4900796;29;27973;-56
2021/03/03 07:31:12;;;;;;;21.58;12.07;;;5.10;70.30;;;;;;4900156;29;27384;-59
2021/03/03 07:33:57;;;;;;;22.52;12.18;;;5.20;70.40;;;;;;4888089;29;27404;-59
2021/03/03 07:36:42;;;;;;;24.77;12.38;;;5.30;70.10;;;;;;4889597;29;27331;-60
2021/03/03 07:39:26;;;;;;;21.85;12.40;;;5.40;70.00;;;;;;4904015;29;27979;-60
2021/03/03 07:42:15;;;;;;;21.10;11.57;;;5.40;69.80;;;;;;4903904;29;27467;-60
2021/03/03 07:45:02;;;;;;;18.75;11.30;;;5.50;69.50;;;;;;4891236;29;27491;-60
2021/03/03 07:47:49;;;;;;;22.05;11.90;;;5.60;69.60;;;;;;4890836;29;27668;-60
2021/03/03 07:50:33;;;;;;;28.30;12.63;;;5.70;69.40;;;;;;4891193;29;27430;-60
2021/03/03 07:53:19;;;;;;;27.73;12.57;;;5.80;69.20;;;;;;4903755;29;27523;-58
2021/03/03 07:56:06;;;;;;;26.30;12.75;;;5.90;69.10;;;;;;4903777;29;27502;-60
2021/03/03 07:58:51;;;;;;;22.92;13.13;;;6.00;68.80;;;;;;4902886;29;27343;-60
2021/03/03 08:01:36;;;;;;;22.17;13.20;;;6.20;68.40;;;;;;4903354;29;27381;-60
2021/03/03 08:04:40;;;;;;;25.00;12.73;;;6.30;68.30;;;;;;4903280;29;27431;-60
2021/03/03 08:07:25;;;;;;;26.95;12.73;;;6.40;67.80;;;;;;4890769;29;27352;-57
2021/03/03 08:10:15;;;;;;;29.13;13.57;;;6.50;67.60;;;;;;4890676;29;27380;-60
2021/03/03 08:13:13;;;;;;;27.35;14.80;;;6.60;67.20;;;;;;4890897;29;27507;-59
2021/03/03 08:15:58;;;;;;;24.95;14.85;;;6.70;66.90;;;;;;4887629;29;27563;-58
2021/03/03 08:18:49;;;;;;;25.73;14.13;;;6.80;66.90;;;;;;4890364;29;27491;-58
2021/03/03 08:21:33;;;;;;;29.45;14.85;;;6.90;66.80;;;;;;4890980;29;27698;-58
2021/03/03 08:24:37;;;;;;;28.13;14.70;;;7.00;66.30;;;;;;4902957;29;28069;-58
2021/03/03 08:27:31;;;;;;;30.42;14.85;;;7.10;66.00;;;;;;4890355;29;27400;-57
2021/03/03 08:30:16;;;;;;;25.63;14.73;;;7.30;65.90;;;;;;4890371;29;27331;-58
2021/03/03 08:33:29;;;;;;;31.00;15.80;;;7.40;65.60;;;;;;4890606;29;27384;-58
2021/03/03 08:36:24;;;;;;;33.70;15.40;;;7.60;65.40;;;;;;4890245;29;27482;-56
2021/03/03 08:39:11;;;;;;;25.70;13.73;;;7.70;65.00;;;;;;4890773;29;27422;-58
2021/03/03 08:41:56;;;;;;;28.15;14.90;;;7.80;64.90;;;;;;4890030;29;27143;-58
2021/03/03 08:45:01;;;;;;;36.67;15.90;;;7.90;64.50;;;;;;4890211;29;27376;-58
2021/03/03 08:47:52;;;;;;;27.30;14.82;;;8.00;64.20;;;;;;4886682;29;27407;-58
2021/03/03 08:50:39;;;;;;;30.02;14.27;;;8.20;64.10;;;;;;4886259;29;27432;-58
2021/03/03 08:53:25;;;;;;;31.83;14.95;;;8.30;63.80;;;;;;4890383;29;27406;-57
2021/03/03 08:56:41;;;;;;;34.70;15.43;;;8.40;63.40;;;;;;4890074;29;27342;-58
2021/03/03 08:59:28;;;;;;;32.33;15.20;;;8.60;63.30;;;;;;4890252;29;27383;-58
2021/03/03 09:02:17;;;;;;;24.15;13.85;;;8.70;63.10;;;;;;4889490;29;27660;-58
2021/03/03 09:05:06;;;;;;;29.05;16.17;;;8.90;62.80;;;;;;4889987;29;27455;-58
2021/03/03 09:07:50;;;;;;;31.20;15.85;;;9.00;62.30;;;;;;4901943;29;27407;-58
2021/03/03 09:10:35;;;;;;;28.83;14.07;;;9.10;61.90;;;;;;4901801;29;27655;-58
2021/03/03 09:13:26;;;;;;;31.40;15.13;;;9.30;61.60;;;;;;4890034;29;27335;-53
2021/03/03 09:16:13;;;;;;;29.85;15.52;;;9.40;61.40;;;;;;4889809;29;27490;-58
2021/03/03 09:19:05;;;;;;;28.63;16.58;;;9.50;61.10;;;;;;4889639;29;27444;-58
2021/03/03 09:21:50;;;;;;;29.55;16.45;;;9.70;60.90;;;;;;4889913;29;27534;-58
2021/03/03 09:24:34;;;;;;;34.83;17.27;;;9.80;60.50;;;;;;4889005;29;27423;-57
2021/03/03 09:27:20;;;;;;;31.17;17.48;;;10.00;61.00;;;;;;4902339;29;27480;-58
2021/03/03 09:30:05;;;;;;;39.38;17.45;;;10.20;60.00;;;;;;4889603;29;27491;-57
2021/03/03 09:32:50;;;;;;;42.55;17.98;;;10.40;59.70;;;;;;4889456;29;27474;-58
2021/03/03 09:35:34;;;;;;;32.72;17.58;;;10.60;59.40;;;;;;4889216;29;27514;-57
2021/03/03 09:38:19;;;;;;;32.33;17.38;;;10.80;59.00;;;;;;4889505;29;27307;-58
2021/03/03 09:41:10;;;;;;;30.92;17.02;;;11.00;58.70;;;;;;4902267;29;27341;-58
2021/03/03 09:44:07;;;;;;;30.15;18.20;;;11.20;58.30;;;;;;4889385;29;27990;-58
2021/03/03 09:46:59;;;;;;;30.63;16.90;;;11.50;58.00;;;;;;4889287;29;27436;-58
2021/03/03 09:49:44;;;;;;;33.50;17.98;;;11.70;57.50;;;;;;4885861;29;27391;-58
2021/03/03 09:52:39;;;;;;;36.47;17.27;;;11.90;57.30;;;;;;4889418;29;27418;-52
2021/03/03 09:55:25;;;;;;;33.63;17.83;;;12.10;56.70;;;;;;4889417;29;27960;-58
2021/03/03 09:58:10;;;;;;;31.38;16.95;;;12.40;56.50;;;;;;4888437;29;27331;-58
2021/03/03 10:00:54;;;;;;;34.10;17.45;;;12.60;56.30;;;;;;4889447;29;27385;-58
2021/03/03 10:03:39;;;;;;;35.55;16.67;;;12.70;55.80;;;;;;4900278;29;27487;-58
2021/03/03 10:06:23;;;;;;;27.67;16.60;;;12.90;55.50;;;;;;4901575;29;27512;-58
2021/03/03 10:09:07;;;;;;;31.63;17.45;;;13.10;55.40;;;;;;4898740;29;27433;-58
2021/03/03 10:11:52;;;;;;;29.15;15.75;;;13.20;55.10;;;;;;4901523;29;27507;-58
2021/03/03 10:14:57;;;;;;;28.80;16.88;;;13.40;55.00;;;;;;4901524;29;27477;-58
2021/03/03 10:17:43;;;;;;;26.92;15.95;;;13.50;54.70;;;;;;4888202;29;27496;-58
2021/03/03 10:20:28;;;;;;;28.77;15.95;;;13.70;54.40;;;;;;4888821;29;27479;-58
2021/03/03 10:23:14;;;;;;;28.67;15.38;;;13.90;54.20;;;;;;4889104;29;27383;-57
2021/03/03 10:26:06;;;;;;;28.50;15.35;;;14.00;54.10;;;;;;4888807;29;27557;-57
2021/03/03 10:28:51;;;;;;;26.77;15.13;;;14.20;53.70;;;;;;4888931;29;27434;-54
2021/03/03 10:31:37;;;;;;;26.35;15.32;;;14.30;53.60;;;;;;4888579;29;27454;-59
2021/03/03 10:34:22;;;;;;;26.33;14.98;;;14.50;53.50;;;;;;4901052;29;27507;-58
2021/03/03 10:37:07;;;;;;;22.98;15.07;;;14.60;53.10;;;;;;4901359;29;27470;-58
2021/03/03 10:39:51;;;;;;;22.80;13.80;;;14.70;53.00;;;;;;4888894;29;27477;-58
2021/03/03 10:42:36;;;;;;;22.35;14.00;;;14.80;52.80;;;;;;4888588;29;27487;-58
2021/03/03 10:45:24;;;;;;;24.48;14.23;;;14.90;52.50;;;;;;4888575;29;27415;-59
2021/03/03 10:48:10;;;;;;;22.63;13.63;;;15.10;52.30;;;;;;4888518;29;27425;-58
2021/03/03 10:50:56;;;;;;;26.45;13.65;;;15.20;52.30;;;;;;4898089;29;27324;-58
2021/03/03 10:53:44;;;;;;;21.73;13.75;;;15.30;52.00;;;;;;4888744;29;27430;-58
2021/03/03 10:56:43;;;;;;;24.40;13.07;;;15.50;51.70;;;;;;4885716;29;27476;-54
2021/03/03 10:59:28;;;;;;;24.63;13.13;;;15.60;51.40;;;;;;4888265;29;27423;-58
2021/03/03 11:02:21;;;;;;;23.85;13.25;;;15.80;51.10;;;;;;4887804;29;27397;-57
2021/03/03 11:05:21;;;;;;;19.55;12.65;;;15.90;50.90;;;;;;4900872;29;27450;-58
2021/03/03 11:08:05;;;;;;;20.45;12.95;;;16.10;50.70;;;;;;4888701;29;27344;-59
2021/03/03 11:10:50;;;;;;;25.33;12.48;;;16.20;50.30;;;;;;4890527;29;27319;-57
2021/03/03 11:13:35;;;;;;;19.98;12.00;;;16.40;50.10;;;;;;4901128;29;27406;-58
2021/03/03 11:16:20;;;;;;;19.38;11.68;;;16.50;50.10;;;;;;4891477;29;27517;-58
2021/03/03 11:19:05;;;;;;;18.42;11.73;;;16.60;49.70;;;;;;4891118;29;27476;-58
2021/03/03 11:21:51;;;;;;;21.95;12.30;;;16.80;49.60;;;;;;4891748;29;27412;-58
2021/03/03 11:24:35;;;;;;;19.20;12.27;;;16.90;49.40;;;;;;4891474;29;27964;-58
2021/03/03 11:27:19;;;;;;;18.83;10.98;;;17.00;49.20;;;;;;4890881;29;27327;-57
2021/03/03 11:30:05;;;;;;;27.67;11.73;;;17.10;49.10;;;;;;4891813;29;27406;-58
2021/03/03 11:32:51;;;;;;;19.30;11.95;;;17.20;49.10;;;;;;4891376;29;27343;-58
2021/03/03 11:35:35;;;;;;;18.15;11.60;;;17.30;48.90;;;;;;4891494;29;27972;-58
2021/03/03 11:38:20;;;;;;;18.55;10.98;;;17.30;48.80;;;;;;4891289;29;27427;-58
2021/03/03 11:41:04;;;;;;;16.77;11.32;;;17.40;48.50;;;;;;4891270;29;27336;-58
2021/03/03 11:43:49;;;;;;;20.27;10.55;;;17.50;48.50;;;;;;4891462;29;27485;-58
2021/03/03 11:46:34;;;;;;;17.20;11.02;;;17.60;48.30;;;;;;4891323;29;27971;-58
2021/03/03 11:49:18;;;;;;;16.45;11.30;;;17.70;48.10;;;;;;4891339;29;27431;-58
2021/03/03 11:52:03;;;;;;;19.50;11.38;;;17.80;48.00;;;;;;4891353;29;27409;-58
2021/03/03 11:54:48;;;;;;;21.17;11.25;;;17.80;48.00;;;;;;4890745;29;27421;-58
2021/03/03 11:57:32;;;;;;;16.45;10.40;;;17.90;47.70;;;;;;4891105;29;27496;-58
2021/03/03 12:00:17;;;;;;;16.13;10.60;;;18.00;47.70;;;;;;4891185;29;27414;-57
2021/03/03 12:03:02;;;;;;;23.77;12.05;;;18.10;47.60;;;;;;4901616;29;27452;-59
2021/03/03 12:05:47;;;;;;;20.10;10.73;;;18.10;47.60;;;;;;4903339;29;27450;-58
2021/03/03 12:08:32;;;;;;;16.70;10.88;;;18.20;47.40;;;;;;4890758;29;27466;-57
2021/03/03 12:11:16;;;;;;;17.75;10.95;;;18.20;47.30;;;;;;4890988;29;27476;-57
2021/03/03 12:14:01;;;;;;;18.63;11.02;;;18.30;47.30;;;;;;4890779;29;27421;-58
2021/03/03 12:16:45;;;;;;;17.83;12.10;;;18.30;47.30;;;;;;4890857;29;27449;-58
2021/03/03 12:19:30;;;;;;;16.77;10.93;;;18.30;47.30;;;;;;4890515;29;28054;-57
2021/03/03 12:22:14;;;;;;;18.33;11.40;;;18.30;47.30;;;;;;4901864;29;27543;-58
2021/03/03 12:24:59;;;;;;;19.55;10.50;;;18.30;47.30;;;;;;4890618;29;27347;-58
2021/03/03 12:27:44;;;;;;;17.92;11.27;;;18.30;47.30;;;;;;4890792;29;27389;-58
2021/03/03 12:30:28;;;;;;;18.48;10.98;;;18.30;47.30;;;;;;4890511;29;27350;-58
2021/03/03 12:33:13;;;;;;;16.10;10.82;;;18.40;47.40;;;;;;4890693;29;27325;-58
2021/03/03 12:35:57;;;;;;;16.90;11.75;;;18.30;47.30;;;;;;4890361;29;27369;-58
2021/03/03 12:38:42;;;;;;;16.92;11.07;;;18.40;47.30;;;;;;4890232;29;27393;-58
2021/03/03 12:41:27;;;;;;;15.85;9.90;;;18.30;47.10;;;;;;4890182;29;27320;-58
2021/03/03 12:44:11;;;;;;;17.27;9.30;;;18.40;47.30;;;;;;4890531;29;27384;-58
2021/03/03 12:46:56;;;;;;;15.80;10.88;;;18.40;47.30;;;;;;4890609;29;27373;-58
2021/03/03 12:49:41;;;;;;;17.40;10.77;;;18.40;47.30;;;;;;4890188;29;26887;-58
2021/03/03 12:52:25;;;;;;;21.60;10.20;;;18.40;47.20;;;;;;4890123;29;27390;-55
2021/03/03 12:55:10;;;;;;;15.07;10.77;;;18.40;47.20;;;;;;4890404;29;27627;-58
2021/03/03 12:57:55;;;;;;;13.48;9.48;;;18.50;47.00;;;;;;4890227;29;27425;-58
2021/03/03 13:00:39;;;;;;;14.00;9.05;;;18.50;47.10;;;;;;4890273;29;27411;-55
2021/03/03 13:03:26;;;;;;;17.40;10.38;;;18.50;47.00;;;;;;4900807;29;27404;-58
2021/03/03 13:06:11;;;;;;;14.98;9.63;;;18.50;46.80;;;;;;4889839;29;27348;-57
2021/03/03 13:08:56;;;;;;;14.90;8.98;;;18.60;47.00;;;;;;4889946;29;27396;-57
2021/03/03 13:11:40;;;;;;;14.13;9.77;;;18.60;46.90;;;;;;4889890;29;27327;-56
2021/03/03 13:14:25;;;;;;;14.25;9.02;;;18.60;46.60;;;;;;4890098;29;27968;-57
2021/03/03 13:17:10;;;;;;;16.10;10.05;;;18.70;46.70;;;;;;4889174;29;27387;-58
2021/03/03 13:19:54;;;;;;;13.63;9.55;;;18.70;46.60;;;;;;4889684;29;27411;-58
2021/03/03 13:22:39;;;;;;;12.27;8.43;;;18.70;46.60;;;;;;4889876;29;27411;-59
2021/03/03 13:25:23;;;;;;;16.80;9.30;;;18.80;46.70;;;;;;4889501;29;27425;-58
2021/03/03 13:28:08;;;;;;;18.25;8.98;;;18.80;46.80;;;;;;4889512;29;27508;-58
2021/03/03 13:30:53;;;;;;;16.48;8.98;;;18.80;46.60;;;;;;4889672;29;27402;-58
2021/03/03 13:33:37;;;;;;;14.88;9.70;;;18.80;46.10;;;;;;4888430;29;27395;-54
2021/03/03 13:36:22;;;;;;;18.33;10.25;;;18.80;45.70;;;;;;4889775;29;27409;-58
2021/03/03 13:39:06;;;;;;;15.57;9.65;;;18.90;45.60;;;;;;4889374;29;27517;-58
2021/03/03 13:41:51;;;;;;;19.88;10.88;;;18.90;45.80;;;;;;4889812;29;27425;-57
2021/03/03 13:44:36;;;;;;;19.00;10.35;;;18.90;45.70;;;;;;4889114;29;27478;-58
2021/03/03 13:47:20;;;;;;;18.10;10.23;;;18.90;45.80;;;;;;4889579;29;27964;-58
2021/03/03 13:50:05;;;;;;;17.52;10.07;;;18.90;45.60;;;;;;4898705;29;27483;-58
2021/03/03 13:52:50;;;;;;;14.68;9.85;;;18.90;45.80;;;;;;4889237;29;27486;-58
2021/03/03 13:55:34;;;;;;;17.10;9.60;;;18.90;46.00;;;;;;4889319;29;26915;-56
2021/03/03 13:58:19;;;;;;;15.88;9.18;;;18.80;45.70;;;;;;4888825;29;27903;-58
2021/03/03 14:01:04;;;;;;;18.10;9.52;;;18.80;46.00;;;;;;4889302;29;27509;-57
2021/03/03 14:03:48;;;;;;;14.77;9.88;;;18.80;46.10;;;;;;4888291;29;27344;-58
2021/03/03 14:06:33;;;;;;;15.90;9.55;;;18.70;46.10;;;;;;4889275;29;27398;-58
2021/03/03 14:09:17;;;;;;;16.48;9.50;;;18.70;46.40;;;;;;4889029;29;27396;-59
2021/03/03 14:12:02;;;;;;;15.50;9.30;;;18.60;47.20;;;;;;4888786;29;27348;-58